NCAR-RAP Real-Time Weather Data

Output produced by METARs form (19 June 2019  11:11 UTC)
found at http://weather.rap.ucar.edu/surface/
 
KCYS 190353Z AUTO 35004KT 10SM FEW095 12/09 A3007 RMK AO2 SLP110 T01220089 $
KCYS 190253Z 21003KT 10SM SCT100 BKN170 14/09 A3008 RMK AO2 SLP115 T01390089 55000 $
KCYS 190153Z 36004KT 10SM BKN042 14/09 A3007 RMK AO2 SLP110 T01390089 $
KCYS 190053Z 20004KT 10SM SCT047 BKN095 14/11 A3008 RMK AO2 SLP117 T01390111 $
KCYS 182353Z 10003KT 10SM 15/11 A3008 RMK AO2 LTG DSNT N SLPNO 6//// T01500111 55014 $
KCYS 182253Z 33004KT 10SM BKN070 14/10 A3007 RMK AO2 SLPNO T01390100 PNO $
KCYS 182153Z 00000KT 10SM OVC060 11/09 A3010 RMK AO2 LTG DSNT SE RAB00E45 SLPNO T01110089 PNO $
KCYS 182142Z 27006KT 7SM RA OVC060 11/08 A3012 RMK AO2 LTG DSNT E AND SE RAB00 T01110078 PNO $
KCYS 182127Z 27006KT 7SM VCTS RA OVC060 11/08 A3012 RMK AO2 LTG DSNT NE-SE RAB00 T01110078 PNO $
KCYS 182100Z 27006KT 7SM RA OVC060 11/08 A3012 RMK AO2 LTG DSNT SW RAB00 T01110078 PNO $
KCYS 182053Z 33007KT 10SM OVC021 11/08 A3013 RMK AO2 LTG DSNT SW TSE05 SLPNO T01110078 53003 $
KCYS 182035Z 21008KT 10SM OVC025 13/12 A3010 RMK AO2 LTG DSNT SW TSE05 T01280122 $
KCYS 182005Z 21008KT 10SM VCTS OVC025 13/12 A3010 RMK AO2 LTG DSNT SW-N TSE05 T01280122 $
KCYS 182000Z TS RMK AO2 LTG DSNT SW-N RVRNO $
KCYS 181953Z 15005KT 10SM TS OVC025 15/11 A3010 RMK AO2 LTG DSNT ALQDS TSB32 SLPNO T01500111 $
KCYS 181938Z 15005KT 10SM TS OVC025 15/11 A3010 RMK AO2 LTG DSNT NW TSB32 T01500111 $
KCYS 181920Z 15005KT 10SM OVC025 15/11 A3010 RMK AO2 LTG DSNT NW T01500111 $
KCYS 181905Z 15005KT 10SM VCTS OVC025 15/11 A3010 RMK AO2 LTG DSNT N AND S AND NW T01500111 $
KCYS 181853Z 12005KT 10SM BKN025 15/11 A3011 RMK AO2 LTG DSNT SW-N SLPNO T01500111 $
KCYS 181753Z 09008KT 10SM BKN020 14/11 A3012 RMK AO2 SLPNO T01390111 10161 20111 58006 $
KCYS 181653Z 11004KT 10SM BKN015 OVC040 16/10 A3014 RMK AO2 SLPNO T01610100 $